Time;durP1;ratioP1;P1;durP2;ratioP2;P2;SDS_P1;SDS_P2;PMS_P1;PMS_P2;Temp;Humidity;BMP_temperature;BMP_pressure;BME280_temperature;BME280_humidity;BME280_pressure;Samples;Min_cycle;Max_cycle;Signal;HPM_P1;HPM_P2
2024/03/19 00:05:49;;;;;;;26.55;18.33;;;7.50;99.90;;;;;;12519857;28;20056;-81
2024/03/19 00:11:50;;;;;;;26.17;17.70;;;7.50;99.90;;;;;;12515704;28;20514;-81
2024/03/19 00:17:52;;;;;;;27.38;18.75;;;7.30;99.90;;;;;;12521722;28;20057;-81
2024/03/19 00:23:53;;;;;;;26.80;18.70;;;7.30;99.90;;;;;;12507798;28;20599;-82
2024/03/19 00:29:54;;;;;;;24.65;18.17;;;7.20;99.90;;;;;;12535536;28;20051;-81
2024/03/19 00:35:58;;;;;;;38.88;16.88;;;7.10;99.90;;;;;;12518826;28;20071;-82
2024/03/19 00:42:01;;;;;;;24.88;17.55;;;7.10;99.90;;;;;;12504645;28;20389;-84
2024/03/19 00:48:02;;;;;;;25.90;18.25;;;7.00;99.90;;;;;;12520654;28;20061;-79
2024/03/19 00:54:02;;;;;;;24.20;17.58;;;6.90;99.90;;;;;;12522249;28;20056;-79
2024/03/19 01:00:10;;;;;;;25.20;17.48;;;6.70;99.90;;;;;;12499192;28;20060;-79
2024/03/19 01:06:12;;;;;;;21.20;16.50;;;6.70;99.90;;;;;;12524655;28;20053;-79
2024/03/19 01:12:13;;;;;;;25.17;17.48;;;6.60;99.90;;;;;;12494095;28;20041;-79
2024/03/19 01:18:14;;;;;;;28.65;17.88;;;6.50;99.90;;;;;;12492243;28;20044;-79
2024/03/19 01:24:15;;;;;;;31.00;19.30;;;6.50;99.90;;;;;;12516767;28;20037;-79
2024/03/19 01:30:16;;;;;;;30.42;18.98;;;6.60;99.90;;;;;;12517247;28;20056;-79
2024/03/19 01:36:17;;;;;;;31.15;17.65;;;6.50;99.90;;;;;;12500166;28;20053;-79
2024/03/19 01:42:21;;;;;;;33.70;18.60;;;6.50;99.90;;;;;;12523081;28;20052;-79
2024/03/19 01:48:22;;;;;;;34.40;18.80;;;6.30;99.90;;;;;;12497001;28;20150;-79
2024/03/19 01:54:24;;;;;;;36.67;19.45;;;6.40;99.90;;;;;;12508143;28;20064;-81
2024/03/19 02:00:25;;;;;;;32.08;18.48;;;6.40;99.90;;;;;;12512706;28;20053;-81
2024/03/19 02:06:26;;;;;;;35.03;19.45;;;6.40;99.90;;;;;;12504236;28;20110;-81
2024/03/19 02:12:28;;;;;;;31.45;18.05;;;6.30;99.90;;;;;;12504794;28;20134;-80
2024/03/19 02:18:29;;;;;;;26.48;17.23;;;6.20;99.90;;;;;;12499491;28;20413;-81
2024/03/19 02:24:30;;;;;;;35.05;16.65;;;6.30;99.90;;;;;;12506177;28;20128;-81
2024/03/19 02:30:31;;;;;;;35.15;14.68;;;6.20;99.90;;;;;;12516753;28;20053;-81
2024/03/19 02:36:31;;;;;;;28.08;13.13;;;6.10;99.90;;;;;;12508263;28;20124;-80
2024/03/19 02:42:33;;;;;;;34.78;12.02;;;6.10;99.90;;;;;;12517513;28;20096;-80
2024/03/19 02:48:34;;;;;;;25.90;13.10;;;6.00;99.90;;;;;;12512524;28;20048;-81
2024/03/19 02:54:35;;;;;;;18.25;13.07;;;5.90;99.90;;;;;;12492909;28;20044;-79
2024/03/19 03:00:37;;;;;;;23.55;14.48;;;5.90;99.90;;;;;;12496546;28;20064;-78
2024/03/19 03:06:39;;;;;;;18.83;13.65;;;5.80;99.90;;;;;;12522294;28;20083;-82
2024/03/19 03:12:40;;;;;;;23.88;14.38;;;5.80;99.90;;;;;;12500385;28;20075;-82
2024/03/19 03:18:40;;;;;;;28.08;16.33;;;5.80;99.90;;;;;;12523106;28;20060;-82
2024/03/19 03:24:41;;;;;;;24.77;14.30;;;5.80;99.90;;;;;;12484835;28;20049;-82
2024/03/19 03:30:42;;;;;;;25.40;15.27;;;5.90;99.90;;;;;;12512398;28;20417;-80
2024/03/19 03:36:44;;;;;;;23.48;15.38;;;5.70;99.90;;;;;;12520895;28;20056;-82
2024/03/19 03:42:46;;;;;;;24.52;14.25;;;5.80;99.90;;;;;;12520924;28;20053;-81
2024/03/19 03:48:46;;;;;;;23.10;14.63;;;5.70;99.90;;;;;;12493276;28;20045;-81
2024/03/19 03:54:47;;;;;;;20.92;14.20;;;5.70;99.90;;;;;;12504249;28;20045;-82
2024/03/19 04:00:48;;;;;;;22.42;14.05;;;5.70;99.90;;;;;;12522954;28;20080;-81
2024/03/19 04:06:49;;;;;;;20.10;12.30;;;5.50;99.90;;;;;;12527424;28;20064;-82
2024/03/19 04:12:50;;;;;;;19.00;12.65;;;5.60;99.90;;;;;;12505580;28;20409;-82
2024/03/19 04:18:51;;;;;;;16.83;11.18;;;5.60;99.90;;;;;;12503150;28;20124;-83
2024/03/19 04:24:52;;;;;;;17.77;11.95;;;5.60;99.90;;;;;;12521110;28;20555;-83
2024/03/19 04:30:53;;;;;;;20.90;12.85;;;5.50;99.90;;;;;;12502599;28;20103;-83
2024/03/19 04:36:54;;;;;;;17.77;12.35;;;5.40;99.90;;;;;;12521207;28;20103;-83
2024/03/19 04:42:55;;;;;;;16.63;11.07;;;5.40;99.90;;;;;;12524643;28;20056;-83
2024/03/19 04:48:56;;;;;;;23.10;12.55;;;5.30;99.90;;;;;;12511397;28;20529;-83
2024/03/19 04:54:57;;;;;;;20.25;11.95;;;5.30;99.90;;;;;;12526524;28;20060;-83
2024/03/19 05:00:58;;;;;;;25.20;11.10;;;5.30;99.90;;;;;;12516771;28;20880;-83
2024/03/19 05:06:58;;;;;;;28.42;9.75;;;5.30;99.90;;;;;;12557893;28;20108;-80
2024/03/19 05:12:59;;;;;;;13.63;8.27;;;5.30;99.90;;;;;;12573767;28;20048;-82
2024/03/19 05:19:00;;;;;;;33.45;10.00;;;5.20;99.90;;;;;;12542718;28;20083;-80
2024/03/19 05:25:01;;;;;;;20.95;8.90;;;5.30;99.90;;;;;;12525421;28;20093;-78
2024/03/19 05:31:18;;;;;;;18.05;8.93;;;5.30;99.90;;;;;;12505794;28;20140;-81
2024/03/19 05:37:19;;;;;;;17.92;10.45;;;5.40;99.90;;;;;;12517263;28;20057;-80
2024/03/19 05:43:20;;;;;;;21.77;11.10;;;5.40;99.90;;;;;;12493846;28;20049;-80
2024/03/19 05:49:21;;;;;;;28.17;11.88;;;5.50;99.90;;;;;;12507293;28;20102;-81
2024/03/19 05:55:21;;;;;;;21.05;11.68;;;5.40;99.90;;;;;;12498854;28;20049;-79
2024/03/19 06:01:22;;;;;;;16.92;10.77;;;5.40;99.90;;;;;;12505145;28;20061;-81
2024/03/19 06:07:23;;;;;;;18.67;11.52;;;5.40;99.90;;;;;;12495672;28;20105;-81
2024/03/19 06:13:24;;;;;;;21.23;13.32;;;5.50;99.90;;;;;;12510715;28;20053;-80
2024/03/19 06:19:25;;;;;;;20.05;12.32;;;5.90;99.90;;;;;;12506871;28;20052;-80
2024/03/19 06:25:26;;;;;;;19.17;11.30;;;6.20;99.90;;;;;;12516385;28;20060;-81
2024/03/19 06:31:26;;;;;;;22.45;13.45;;;6.60;99.90;;;;;;12496230;28;20053;-79
2024/03/19 06:37:27;;;;;;;19.50;12.02;;;6.90;99.90;;;;;;12524458;28;20128;-79
2024/03/19 06:43:28;;;;;;;29.48;15.82;;;7.20;99.90;;;;;;12512014;28;20049;-79
2024/03/19 06:49:29;;;;;;;21.35;13.60;;;7.30;99.90;;;;;;12508364;28;20063;-79
2024/03/19 06:55:31;;;;;;;20.13;12.60;;;7.40;99.90;;;;;;12496899;28;20044;-79
2024/03/19 07:01:33;;;;;;;23.27;14.10;;;7.60;99.90;;;;;;12507882;28;20060;-79
2024/03/19 07:07:35;;;;;;;19.17;13.18;;;7.70;99.90;;;;;;12515438;28;20056;-79
2024/03/19 07:13:36;;;;;;;23.15;14.88;;;7.60;99.90;;;;;;12503766;28;20064;-79
2024/03/19 07:19:37;;;;;;;21.70;14.43;;;7.50;99.90;;;;;;12530366;28;20144;-79
2024/03/19 07:25:38;;;;;;;21.20;13.30;;;7.60;99.90;;;;;;12530134;28;20049;-79
2024/03/19 07:31:42;;;;;;;20.83;13.73;;;7.40;99.90;;;;;;12493391;28;20045;-80
2024/03/19 07:37:43;;;;;;;18.55;12.85;;;7.60;99.90;;;;;;12530591;28;20060;-78
2024/03/19 07:43:44;;;;;;;17.15;12.05;;;7.90;99.90;;;;;;12525659;28;20064;-84
2024/03/19 07:49:48;;;;;;;25.27;15.18;;;8.10;99.90;;;;;;12530328;28;20416;-79
2024/03/19 07:55:49;;;;;;;21.67;15.55;;;8.10;99.90;;;;;;12525193;28;20056;-79
2024/03/19 08:01:51;;;;;;;22.58;14.25;;;8.20;99.90;;;;;;12515567;28;20107;-80
2024/03/19 08:07:52;;;;;;;20.80;16.15;;;8.30;99.90;;;;;;12524187;28;20056;-79
2024/03/19 08:13:53;;;;;;;26.30;17.17;;;8.30;99.90;;;;;;12522321;28;20053;-79
2024/03/19 08:19:58;;;;;;;24.98;17.08;;;8.50;99.90;;;;;;12519514;28;20449;-79
2024/03/19 08:25:59;;;;;;;25.55;18.13;;;9.30;99.90;;;;;;12517650;28;20682;-79
2024/03/19 08:32:00;;;;;;;38.05;22.30;;;9.30;99.90;;;;;;12525791;28;20134;-79
2024/03/19 08:38:02;;;;;;;39.65;21.90;;;9.80;99.90;;;;;;12510797;28;20132;-79
2024/03/19 08:44:03;;;;;;;46.33;23.67;;;10.30;99.90;;;;;;12507745;28;20497;-80
2024/03/19 08:50:09;;;;;;;39.20;23.83;;;10.70;99.90;;;;;;12524475;28;20514;-80
2024/03/19 08:56:09;;;;;;;36.65;23.35;;;11.10;99.90;;;;;;12515433;28;20056;-80
2024/03/19 09:02:11;;;;;;;38.63;28.35;;;11.30;99.90;;;;;;12519394;28;20068;-85
2024/03/19 09:08:12;;;;;;;36.90;30.17;;;11.60;99.90;;;;;;12507938;28;20053;-84
2024/03/19 09:14:13;;;;;;;38.65;34.72;;;11.80;99.90;;;;;;12517727;28;20056;-85
2024/03/19 09:20:14;;;;;;;47.90;43.53;;;11.90;99.90;;;;;;12481888;28;20047;-84
2024/03/19 09:26:15;;;;;;;59.15;54.25;;;12.00;99.90;;;;;;12494614;28;20106;-85
2024/03/19 09:32:16;;;;;;;58.65;53.75;;;12.20;99.90;;;;;;12516739;28;20436;-85
2024/03/19 09:38:19;;;;;;;54.90;50.45;;;12.40;99.90;;;;;;12504304;28;20053;-84
2024/03/19 09:44:21;;;;;;;44.00;40.13;;;12.60;99.90;;;;;;12502564;28;20056;-86
2024/03/19 09:50:23;;;;;;;40.45;36.95;;;12.80;99.90;;;;;;12501051;28;20081;-84
2024/03/19 09:56:24;;;;;;;36.58;33.30;;;12.80;99.90;;;;;;12516037;28;20052;-81
2024/03/19 10:02:25;;;;;;;41.20;37.72;;;12.90;99.90;;;;;;12461591;28;20502;-82
2024/03/19 10:08:27;;;;;;;34.28;30.83;;;12.80;99.90;;;;;;12484883;28;20061;-81
2024/03/19 10:14:31;;;;;;;31.65;28.35;;;12.50;99.90;;;;;;12476683;28;20053;-83
2024/03/19 10:27:58;;;;;;;26.17;23.30;;;12.10;99.90;;;;;;12496004;28;20035;-83
2024/03/19 10:34:00;;;;;;;24.92;21.80;;;12.20;99.90;;;;;;12461593;28;20509;-83
2024/03/19 10:40:03;;;;;;;24.60;22.00;;;12.10;99.90;;;;;;12454308;28;20096;-83
2024/03/19 10:46:04;;;;;;;27.00;21.77;;;12.10;99.90;;;;;;12468290;28;20463;-83
2024/03/19 10:52:20;;;;;;;28.42;25.10;;;12.40;99.90;;;;;;12472038;28;20179;-82
2024/03/19 10:58:22;;;;;;;32.80;29.25;;;12.70;99.90;;;;;;12449079;28;20081;-83
2024/03/19 11:04:26;;;;;;;27.73;22.60;;;13.30;99.90;;;;;;12467547;28;20046;-84
2024/03/19 11:10:31;;;;;;;;;;;13.70;99.90;;;;;;12455268;28;20053;-83
2024/03/19 11:16:38;;;;;;;26.02;23.38;;;13.90;99.90;;;;;;12456628;28;20365;-82
2024/03/19 11:22:41;;;;;;;32.10;27.60;;;13.90;99.90;;;;;;12460418;28;20049;-83
2024/03/19 11:28:57;;;;;;;33.60;30.08;;;14.00;99.90;;;;;;12436373;28;20054;-83
2024/03/19 11:34:59;;;;;;;24.73;22.02;;;14.30;99.90;;;;;;12442005;28;20049;-83
2024/03/19 11:41:02;;;;;;;24.70;21.58;;;14.40;99.90;;;;;;12470165;28;20045;-83
2024/03/19 11:47:04;;;;;;;24.17;20.88;;;14.40;99.90;;;;;;12467992;28;20494;-82
2024/03/19 11:53:05;;;;;;;22.27;19.80;;;14.20;99.90;;;;;;12442298;28;20050;-83
2024/03/19 11:59:05;;;;;;;21.55;17.45;;;14.00;99.90;;;;;;12461519;28;20406;-83
2024/03/19 12:05:13;;;;;;;23.75;18.58;;;14.00;99.90;;;;;;12515667;28;20057;-83
2024/03/19 12:11:19;;;;;;;22.73;18.40;;;14.20;99.90;;;;;;12512482;28;20060;-86
2024/03/19 12:17:20;;;;;;;23.88;17.83;;;14.40;99.90;;;;;;12508590;28;20061;-83
2024/03/19 12:23:22;;;;;;;21.50;16.73;;;14.50;99.90;;;;;;12514887;28;20391;-83
2024/03/19 12:29:24;;;;;;;14.63;12.70;;;14.90;99.90;;;;;;12490034;28;20059;-83
2024/03/19 12:35:28;;;;;;;16.52;14.82;;;15.10;99.90;;;;;;12507406;28;20044;-87
2024/03/19 12:41:29;;;;;;;19.75;13.75;;;14.80;99.90;;;;;;12508044;28;20048;-87
2024/03/19 12:47:30;;;;;;;16.35;12.18;;;15.00;99.90;;;;;;12490203;28;20065;-87
2024/03/19 12:53:31;;;;;;;17.23;13.05;;;15.40;99.90;;;;;;12519490;28;20504;-87
2024/03/19 12:59:33;;;;;;;18.83;14.98;;;15.50;99.90;;;;;;12503513;28;20076;-87
2024/03/19 13:05:33;;;;;;;18.17;14.38;;;15.40;99.90;;;;;;12496669;28;20049;-88
2024/03/19 13:11:36;;;;;;;15.60;12.77;;;15.50;99.90;;;;;;12502008;28;20053;-89
2024/03/19 13:17:37;;;;;;;18.73;14.48;;;15.70;99.90;;;;;;12511255;28;20045;-87
2024/03/19 13:23:39;;;;;;;20.48;15.15;;;15.30;99.90;;;;;;12516437;28;20128;-86
2024/03/19 13:29:40;;;;;;;15.25;12.10;;;14.90;99.90;;;;;;12500192;28;20443;-87
2024/03/19 13:35:42;;;;;;;21.45;13.23;;;15.10;99.90;;;;;;12497644;28;20046;-87
2024/03/19 13:41:42;;;;;;;16.77;13.40;;;14.90;99.90;;;;;;12481881;28;20057;-87
2024/03/19 13:47:45;;;;;;;14.85;12.30;;;14.90;99.90;;;;;;12495448;28;20128;-84
2024/03/19 13:53:49;;;;;;;14.45;10.98;;;15.30;99.90;;;;;;12489250;28;20096;-84
2024/03/19 13:59:50;;;;;;;12.38;10.35;;;15.60;99.90;;;;;;12498408;28;20068;-84
2024/03/19 14:05:51;;;;;;;18.45;10.95;;;15.60;99.90;;;;;;12489012;28;20053;-84
2024/03/19 14:11:53;;;;;;;16.77;11.88;;;15.60;99.90;;;;;;12516940;28;20056;-84
2024/03/19 14:17:54;;;;;;;17.10;11.45;;;15.60;99.90;;;;;;12512960;28;20071;-84
2024/03/19 14:23:55;;;;;;;13.60;10.27;;;15.50;99.90;;;;;;12481059;28;20060;-84
2024/03/19 14:29:56;;;;;;;14.43;10.40;;;15.50;99.90;;;;;;12498393;28;20049;-84
2024/03/19 14:35:57;;;;;;;14.57;11.68;;;15.50;99.90;;;;;;12512133;28;20095;-84
2024/03/19 14:41:58;;;;;;;18.38;11.55;;;15.30;99.90;;;;;;12511111;28;20068;-83
2024/03/19 14:47:59;;;;;;;14.32;9.90;;;15.30;99.90;;;;;;12496987;28;20061;-84
2024/03/19 14:54:02;;;;;;;13.55;9.85;;;15.10;99.90;;;;;;12509730;28;20128;-87
2024/03/19 15:00:04;;;;;;;11.98;8.77;;;15.20;99.90;;;;;;12506854;28;20049;-87
2024/03/19 15:06:06;;;;;;;10.60;8.52;;;15.20;99.90;;;;;;12487111;28;20053;-87
2024/03/19 15:12:09;;;;;;;12.95;8.68;;;15.00;99.90;;;;;;12511819;28;20055;-86
2024/03/19 15:18:10;;;;;;;12.95;8.85;;;14.90;99.90;;;;;;12511722;28;20057;-86
2024/03/19 15:24:13;;;;;;;15.05;10.07;;;14.80;99.90;;;;;;12506370;28;20413;-87
2024/03/19 15:30:14;;;;;;;11.95;9.00;;;14.60;99.90;;;;;;12510942;28;20049;-86
2024/03/19 15:36:15;;;;;;;13.02;8.85;;;14.50;99.90;;;;;;12509655;28;20049;-87
2024/03/19 15:42:16;;;;;;;11.90;8.93;;;14.40;99.90;;;;;;12521960;28;20057;-86
2024/03/19 15:48:18;;;;;;;13.40;9.48;;;14.40;99.90;;;;;;12518594;28;20432;-86
2024/03/19 15:54:19;;;;;;;14.77;9.52;;;14.40;99.90;;;;;;12530539;28;20033;-84
2024/03/19 16:00:21;;;;;;;13.30;9.00;;;14.20;99.90;;;;;;12574618;28;20065;-86
2024/03/19 16:06:22;;;;;;;10.77;9.45;;;14.20;99.90;;;;;;12541572;28;20075;-84
2024/03/19 16:12:23;;;;;;;15.02;10.05;;;14.20;99.90;;;;;;12544078;28;20045;-83
2024/03/19 16:18:24;;;;;;;13.05;9.02;;;14.30;99.90;;;;;;12560496;28;20073;-84
2024/03/19 16:24:25;;;;;;;12.98;8.63;;;14.30;99.90;;;;;;12535481;28;20060;-84
2024/03/19 16:30:26;;;;;;;10.05;8.43;;;14.30;99.90;;;;;;12548133;28;20048;-84
2024/03/19 16:36:27;;;;;;;13.43;9.38;;;14.20;99.90;;;;;;12551731;28;20596;-84
2024/03/19 16:42:29;;;;;;;13.15;9.05;;;14.00;99.90;;;;;;12513556;28;20056;-84
2024/03/19 16:48:30;;;;;;;11.60;8.55;;;13.80;99.90;;;;;;12533000;28;20068;-84
2024/03/19 16:54:31;;;;;;;12.75;8.50;;;13.70;99.90;;;;;;12558335;28;20057;-83
2024/03/19 17:00:31;;;;;;;13.70;9.70;;;13.60;99.90;;;;;;12518254;28;20057;-83
2024/03/19 17:06:32;;;;;;;10.80;8.70;;;13.50;99.90;;;;;;12513585;28;20072;-83
2024/03/19 17:12:33;;;;;;;12.02;8.57;;;13.30;99.90;;;;;;12523065;28;20052;-84
2024/03/19 17:18:34;;;;;;;10.55;8.43;;;13.10;99.90;;;;;;12530460;28;20060;-83
2024/03/19 17:24:35;;;;;;;11.45;7.57;;;13.00;99.90;;;;;;12501728;28;20057;-84
2024/03/19 17:30:36;;;;;;;12.52;7.90;;;13.00;99.90;;;;;;12495992;28;20255;-84
2024/03/19 17:36:38;;;;;;;10.82;8.18;;;12.90;99.90;;;;;;12490435;28;20102;-84
2024/03/19 17:42:42;;;;;;;11.77;7.32;;;12.70;99.90;;;;;;12495470;28;20083;-84
2024/03/19 17:48:43;;;;;;;11.00;8.23;;;12.50;99.90;;;;;;12487461;28;20055;-84
2024/03/19 17:54:44;;;;;;;10.00;7.25;;;12.40;99.90;;;;;;12484473;28;20053;-84
2024/03/19 18:00:45;;;;;;;13.98;9.73;;;12.30;99.90;;;;;;12504346;28;20060;-83
2024/03/19 18:06:46;;;;;;;15.55;10.50;;;12.30;99.90;;;;;;12488739;28;20056;-84
2024/03/19 18:12:48;;;;;;;18.05;9.93;;;12.30;99.90;;;;;;12492139;28;20053;-84
2024/03/19 18:18:48;;;;;;;9.82;7.70;;;12.10;99.90;;;;;;12514383;28;20049;-84
2024/03/19 18:24:49;;;;;;;11.15;7.20;;;12.00;99.90;;;;;;12493200;28;20540;-84
2024/03/19 18:30:50;;;;;;;10.57;7.35;;;11.90;99.90;;;;;;12502660;28;20052;-86
2024/03/19 18:36:52;;;;;;;13.13;7.30;;;11.80;99.90;;;;;;12515646;28;20045;-86
2024/03/19 18:42:57;;;;;;;11.63;7.57;;;11.80;99.90;;;;;;12512361;28;20052;-86
2024/03/19 18:48:57;;;;;;;10.35;7.63;;;11.70;99.90;;;;;;12510528;28;20064;-86
2024/03/19 18:54:58;;;;;;;19.77;12.20;;;11.70;99.90;;;;;;12512167;28;20091;-86
2024/03/19 19:01:00;;;;;;;19.95;13.48;;;11.80;99.90;;;;;;12536826;28;20052;-85
2024/03/19 19:07:00;;;;;;;18.10;11.77;;;12.00;99.90;;;;;;12519768;28;20060;-86
2024/03/19 19:13:01;;;;;;;14.75;9.18;;;12.20;99.90;;;;;;12513375;28;20068;-86
2024/03/19 19:19:03;;;;;;;16.52;10.90;;;12.10;99.90;;;;;;12518978;28;20036;-86
2024/03/19 19:25:04;;;;;;;18.23;9.60;;;12.10;99.90;;;;;;12497862;28;20053;-87
2024/03/19 19:31:06;;;;;;;17.65;10.38;;;12.10;99.90;;;;;;12483352;28;20072;-83
2024/03/19 19:37:08;;;;;;;19.42;11.00;;;12.00;99.90;;;;;;12496988;28;20045;-86
2024/03/19 19:43:09;;;;;;;18.20;10.52;;;11.90;99.90;;;;;;12494992;28;20103;-84
2024/03/19 19:49:11;;;;;;;15.27;9.88;;;11.80;99.90;;;;;;12513532;28;20102;-84
2024/03/19 19:55:12;;;;;;;15.32;9.68;;;11.80;99.90;;;;;;12489358;28;20057;-84
2024/03/19 20:01:14;;;;;;;15.55;9.57;;;11.80;99.90;;;;;;12499465;28;20056;-84
2024/03/19 20:07:16;;;;;;;16.08;10.13;;;11.80;99.90;;;;;;12503163;28;20061;-83
2024/03/19 20:13:17;;;;;;;16.38;10.38;;;11.70;99.90;;;;;;12501094;28;20057;-84
2024/03/19 20:19:20;;;;;;;17.27;10.20;;;11.60;99.90;;;;;;12496933;28;20044;-83
2024/03/19 20:25:26;;;;;;;17.90;10.75;;;11.60;99.90;;;;;;12521910;28;20049;-84
2024/03/19 20:31:27;;;;;;;16.50;10.68;;;11.60;99.90;;;;;;12478252;28;20053;-84
2024/03/19 20:37:28;;;;;;;17.17;10.75;;;11.60;99.90;;;;;;12502370;28;20049;-84
2024/03/19 20:43:29;;;;;;;16.58;10.48;;;11.50;99.90;;;;;;12507539;28;20041;-84
2024/03/19 20:49:30;;;;;;;14.32;10.07;;;11.50;99.90;;;;;;12505178;28;20057;-80
2024/03/19 20:55:33;;;;;;;14.00;10.00;;;11.50;99.90;;;;;;12527671;28;20654;-81
2024/03/19 21:01:34;;;;;;;19.33;11.35;;;11.50;99.90;;;;;;12521799;28;20061;-80
2024/03/19 21:07:36;;;;;;;17.27;11.00;;;11.50;99.90;;;;;;12511166;28;20075;-84
2024/03/19 21:13:37;;;;;;;21.15;11.45;;;11.40;99.90;;;;;;12507739;28;20547;-80
2024/03/19 21:19:38;;;;;;;16.90;11.07;;;11.40;99.90;;;;;;12528171;28;20125;-81
2024/03/19 21:25:40;;;;;;;15.38;11.05;;;11.30;99.90;;;;;;12510855;28;20053;-80
2024/03/19 21:31:40;;;;;;;23.25;12.23;;;11.20;99.90;;;;;;12502798;28;20064;-80
2024/03/19 21:37:41;;;;;;;20.20;11.57;;;11.20;99.90;;;;;;12515492;28;20804;-80
2024/03/19 21:43:42;;;;;;;19.98;12.20;;;11.10;99.90;;;;;;12502303;28;20094;-80
2024/03/19 21:49:43;;;;;;;16.80;11.02;;;11.00;99.90;;;;;;12494428;28;20194;-84
2024/03/19 21:55:44;;;;;;;20.02;11.63;;;11.10;99.90;;;;;;12515877;28;20052;-80
2024/03/19 22:01:45;;;;;;;19.73;11.05;;;11.10;99.90;;;;;;12472775;28;20068;-80
2024/03/19 22:07:46;;;;;;;21.80;11.57;;;11.20;99.90;;;;;;12444692;28;20100;-80
2024/03/19 22:13:47;;;;;;;17.63;11.05;;;11.10;99.90;;;;;;12462878;28;20419;-81
2024/03/19 22:19:48;;;;;;;19.50;11.18;;;11.00;99.90;;;;;;12463464;28;20073;-81
2024/03/19 22:25:49;;;;;;;16.45;10.75;;;10.90;99.90;;;;;;12467956;28;20053;-80
2024/03/19 22:31:50;;;;;;;15.75;10.60;;;10.80;99.90;;;;;;12460674;28;20049;-80
2024/03/19 22:37:51;;;;;;;19.05;9.60;;;10.80;99.90;;;;;;12476923;28;20051;-80
2024/03/19 22:43:52;;;;;;;18.63;11.10;;;10.80;99.90;;;;;;12485135;28;20057;-82
2024/03/19 22:49:53;;;;;;;17.52;12.52;;;10.60;99.90;;;;;;12455780;28;20061;-80
2024/03/19 22:55:54;;;;;;;22.58;12.35;;;10.50;99.90;;;;;;12486856;28;20049;-82
2024/03/19 23:01:55;;;;;;;20.02;11.73;;;10.20;99.90;;;;;;12490311;28;20476;-81
2024/03/19 23:07:59;;;;;;;19.80;12.57;;;10.10;99.90;;;;;;12480147;28;20045;-80
2024/03/19 23:14:00;;;;;;;22.90;12.65;;;10.00;99.90;;;;;;12475759;28;20053;-83
2024/03/19 23:20:03;;;;;;;20.95;12.82;;;9.80;99.90;;;;;;12475456;28;20053;-84
2024/03/19 23:26:04;;;;;;;20.45;12.88;;;9.80;99.90;;;;;;12462518;28;20060;-84
2024/03/19 23:32:06;;;;;;;21.90;13.32;;;9.70;99.90;;;;;;12458918;28;20056;-84
2024/03/19 23:38:07;;;;;;;21.75;12.57;;;9.60;99.90;;;;;;12443743;28;20049;-84
2024/03/19 23:44:08;;;;;;;19.17;12.02;;;9.60;99.90;;;;;;12465755;28;20129;-84
2024/03/19 23:50:09;;;;;;;21.17;12.05;;;9.60;99.90;;;;;;12432921;28;20454;-85
2024/03/19 23:56:10;;;;;;;20.60;12.35;;;9.60;99.90;;;;;;12477628;28;20522;-84
